Prairieville, LA

11:36 PM CST on March 01, 2015 (GMT -0600)
Abby James Rd | Change Station
CLOSE
Current Station
Personal Weather Station
Location: Prairieville, LA
Elevation: 39 ft
Nearby Weather Stations

Elev 39 ft 30.31 °N, 90.93 °W | Updated 1 minute ago

Rain
Rain
61.6 °F
Feels Like 61.6 °F
N
4.0
Wind Variable Wind from East
Gusts 6.0 mph

Today
High -- | Low -- °F
--% Chance of Precip.
Yesterday
High -- | Low -- °F
Precip. -- in
6:30 AM 6:02 PM
Waxing Gibbous, 89% visible
Pressure 30.29 in
Visibility 3.0 miles
Clouds Mostly Cloudy 500 ft
Mostly Cloudy 1700 ft
Overcast 4300 ft
Dew Point 56 °F
Humidity 83%
Rainfall 2.09 in
Snow Depth Not available.
UV 0 out of 12
Pollen 9.50 out of 12
Air Quality Not available.
Flu Activity Not available.
METAR KL38 020515Z AUTO 09006KT 3SM +VCTSRA BKN005 BKN017 OVC043 16/16 A3029 RMK AO2 LTG DSNT SE AND S P0012 T01620162

More Conditions Fewer Conditions

Pressure 30.29 in
Visibility 3.0 miles
Clouds Mostly Cloudy 500 ft
Mostly Cloudy 1700 ft
Overcast 4300 ft
Dew Point 56 °F
Humidity 83%
Rainfall 2.09 in
Snow Depth Not available.
UV 0 out of 12
Pollen 9.50 out of 12
Air Quality Not available.
Flu Activity Not available.
METAR KL38 020515Z AUTO 09006KT 3SM +VCTSRA BKN005 BKN017 OVC043 16/16 A3029 RMK AO2 LTG DSNT SE AND S P0012 T01620162

More Conditions Fewer Conditions

10-Day Weather Forecast

Almanac

Astronomy

Mar. 01, 2015 Rise Set
Actual Time
Civil Twilight
Nautical Twilight
Astronomical Twilight
Moon
Length of Visible Light
Length of Day
Tomorrow will be .
, % of the Moon is Illuminated

Today's Extremes

State Highs State Lows

Community

WunderPhotos

Upload Photos

1,801,731 photos uploaded!

WunderBlogs® & News

Nearby

Air Quality

  Air Quality AQ Index Pollutant
Not available.

Snow Depth

Station Depth Elevation

Earthquake Activity

City Distance Mag. Time & Date
Minimum magnitude displayed is 2.5.

Coastal Water Temperatures

Place Temperature

Nearby Weather Stations